Cushman, Arkansas
Current Conditions -  °F | °C
As of 5:55 AM on Thursday 27 Nov 2014 (Local Time) from KBVX Reporting Station
Broken Clouds Broken Clouds  
Wind Chill: -2°   Ceiling: 3400
Heat Index:   Visibility: 10mi
Dew Point: -4°   Wind: 9mph
Humidity: 65%   Direction: 330°NNW
Pressure: 30.43"   Gusts: 18mph
Location:  35.87°N, 91.75°W
Report Text: KBVX 271155Z AUTO 33008G16KT 220V060 10SM BKN034 02/M04 A3043 RMK AO1 10050 20020 52020
Loading
Personal Weather Stations






























Interactive Weather Map New forecast layout! Learn more

10-Day Weather Forecast

Advertisements
Track Severe Weather on mobile